Time;durP1;ratioP1;P1;durP2;ratioP2;P2;SDS_P1;SDS_P2;PMS_P1;PMS_P2;Temp;Humidity;BMP_temperature;BMP_pressure;BME280_temperature;BME280_humidity;BME280_pressure;Samples;Min_cycle;Max_cycle;Signal;HPM_P1;HPM_P2
2022/05/05 00:00:16;;;;;;;13.30;9.97;;;14.90;1.00;;;;;;5035543;28;20220;-84
2022/05/05 00:02:42;;;;;;;13.20;10.20;;;14.80;1.00;;;;;;5036168;28;20173;-84
2022/05/05 00:05:08;;;;;;;13.53;9.93;;;14.90;1.00;;;;;;5037584;28;20257;-83
2022/05/05 00:07:34;;;;;;;16.30;10.00;;;14.90;1.00;;;;;;5035928;28;20734;-81
2022/05/05 00:14:23;;;;;;;13.10;9.83;;;14.90;1.00;;;;;;5039647;28;20177;-84
2022/05/05 00:15:32;;;;;;;15.57;10.23;;;14.90;1.00;;;;;;5054507;28;20261;-84
2022/05/05 00:17:58;;;;;;;15.40;9.93;;;14.90;1.00;;;;;;5057084;28;20181;-84
2022/05/05 00:20:24;;;;;;;14.73;9.77;;;14.80;1.00;;;;;;5057561;28;20162;-83
2022/05/05 00:22:50;;;;;;;16.53;9.10;;;14.90;1.00;;;;;;5056433;28;20173;-80
2022/05/05 00:25:16;;;;;;;16.03;9.10;;;15.10;1.00;;;;;;5057760;28;20180;-81
2022/05/05 00:27:41;;;;;;;14.13;9.70;;;15.00;1.00;;;;;;5057776;28;20235;-86
2022/05/05 00:30:08;;;;;;;13.57;10.13;;;15.20;1.00;;;;;;5057710;28;20174;-82
2022/05/05 00:32:33;;;;;;;14.13;9.23;;;15.20;1.00;;;;;;5051718;28;20665;-83
2022/05/05 00:34:59;;;;;;;12.43;9.47;;;15.10;1.00;;;;;;5049906;28;20170;-85
2022/05/05 00:37:31;;;;;;;13.97;9.40;;;15.10;1.00;;;;;;5050174;28;20166;-82
2022/05/05 00:39:59;;;;;;;13.40;9.47;;;15.10;1.00;;;;;;5049655;28;20178;-83
2022/05/05 00:42:28;;;;;;;18.50;10.23;;;15.00;1.00;;;;;;5036659;28;20158;-84
2022/05/05 00:44:57;;;;;;;17.20;10.13;;;15.00;1.00;;;;;;5035904;28;20520;-83
2022/05/05 00:47:27;;;;;;;16.73;9.93;;;15.10;1.00;;;;;;5042768;28;20240;-80
2022/05/05 00:49:53;;;;;;;14.97;10.47;;;14.90;1.00;;;;;;5050472;28;20220;-79
2022/05/05 00:52:29;;;;;;;15.57;10.77;;;14.90;1.00;;;;;;5056917;28;20154;-83
2022/05/05 00:54:59;;;;;;;12.60;9.80;;;15.10;1.00;;;;;;5039798;28;20170;-82
2022/05/05 00:57:25;;;;;;;16.53;10.87;;;15.00;1.00;;;;;;5037467;28;20164;-82
2022/05/05 00:59:52;;;;;;;15.63;10.67;;;15.10;1.00;;;;;;5037526;28;20564;-84
2022/05/05 01:02:18;;;;;;;16.90;11.03;;;15.10;1.00;;;;;;5037524;28;20208;-84
2022/05/05 01:04:46;;;;;;;14.73;11.20;;;15.10;1.00;;;;;;5037132;28;20166;-85
2022/05/05 01:07:16;;;;;;;15.27;11.20;;;15.00;1.00;;;;;;5037052;28;20262;-85
2022/05/05 01:09:42;;;;;;;16.47;12.23;;;14.90;1.00;;;;;;5036644;28;20196;-83
2022/05/05 01:12:09;;;;;;;19.70;12.80;;;14.80;1.00;;;;;;5036718;28;20169;-86
2022/05/05 01:14:35;;;;;;;18.17;12.47;;;14.70;1.00;;;;;;5036963;28;20162;-83
2022/05/05 01:17:02;;;;;;;18.43;12.10;;;14.50;1.00;;;;;;5036895;28;20672;-84
2022/05/05 01:19:28;;;;;;;16.70;13.00;;;14.50;1.00;;;;;;5035724;28;20172;-83
2022/05/05 01:21:55;;;;;;;20.13;12.47;;;14.60;1.00;;;;;;5037281;28;20189;-85
2022/05/05 01:29:52;;;;;;;16.80;13.17;;;14.60;1.00;;;;;;5037962;28;20226;-84
2022/05/05 01:32:18;;;;;;;19.10;14.03;;;14.60;1.00;;;;;;5037100;28;20170;-83
2022/05/05 01:34:43;;;;;;;22.13;14.43;;;14.50;1.00;;;;;;5036875;28;20256;-83
2022/05/05 01:37:09;;;;;;;17.57;14.00;;;14.60;1.00;;;;;;5052242;28;20176;-84
2022/05/05 01:39:35;;;;;;;19.73;13.93;;;14.70;1.00;;;;;;5037304;28;20180;-83
2022/05/05 01:42:00;;;;;;;17.57;13.43;;;14.60;1.00;;;;;;5036939;28;20203;-83
2022/05/05 01:44:26;;;;;;;17.83;14.07;;;14.50;1.00;;;;;;5035992;28;20705;-83
2022/05/05 01:46:55;;;;;;;17.13;13.60;;;14.60;1.00;;;;;;5036065;28;20262;-85
2022/05/05 01:49:20;;;;;;;19.00;13.30;;;14.60;1.00;;;;;;5036611;28;20169;-83
2022/05/05 01:51:46;;;;;;;20.90;14.63;;;14.50;1.00;;;;;;5036141;28;20175;-83
2022/05/05 01:54:12;;;;;;;18.13;13.97;;;14.50;1.00;;;;;;5036405;28;20205;-84
2022/05/05 01:56:37;;;;;;;20.87;14.43;;;14.60;1.00;;;;;;5036462;28;20176;-83
2022/05/05 01:59:03;;;;;;;18.90;14.93;;;14.90;1.00;;;;;;5036578;28;20625;-84
2022/05/05 02:01:29;;;;;;;17.77;14.20;;;14.70;1.00;;;;;;5035955;28;20196;-82
2022/05/05 02:03:54;;;;;;;20.10;15.67;;;14.70;1.00;;;;;;5036028;28;20271;-82
2022/05/05 02:06:20;;;;;;;16.63;14.67;;;14.60;1.00;;;;;;5035822;28;20705;-84
2022/05/05 02:08:48;;;;;;;19.80;15.33;;;14.70;1.00;;;;;;5036094;28;20172;-84
2022/05/05 02:11:14;;;;;;;18.67;16.07;;;14.70;1.00;;;;;;5036024;28;20172;-84
2022/05/05 02:13:40;;;;;;;24.77;16.10;;;14.60;1.00;;;;;;5036055;28;20165;-84
2022/05/05 02:16:05;;;;;;;21.30;16.40;;;14.60;1.00;;;;;;5035591;28;20224;-84
2022/05/05 02:18:31;;;;;;;22.90;17.43;;;14.50;1.00;;;;;;5036555;28;20252;-84
2022/05/05 02:20:57;;;;;;;21.50;18.40;;;14.40;1.00;;;;;;5047704;28;20218;-81
2022/05/05 02:23:23;;;;;;;22.17;19.20;;;14.40;1.00;;;;;;5053774;28;20157;-83
2022/05/05 02:25:48;;;;;;;24.23;18.53;;;14.50;1.00;;;;;;5049818;28;20570;-85
2022/05/05 02:28:14;;;;;;;26.03;20.53;;;14.50;1.00;;;;;;5052197;28;20185;-82
2022/05/05 02:30:40;;;;;;;23.80;20.40;;;14.70;1.00;;;;;;5053845;28;20173;-84
2022/05/05 02:33:07;;;;;;;24.27;20.10;;;14.60;1.00;;;;;;5051436;28;20176;-84
2022/05/05 02:35:32;;;;;;;28.30;20.50;;;14.50;1.00;;;;;;5044590;28;20623;-84
2022/05/05 02:40:42;;;;;;;28.90;20.87;;;14.60;1.00;;;;;;5040049;28;20267;-84
2022/05/05 02:43:08;;;;;;;22.70;20.17;;;14.40;1.00;;;;;;5041310;28;20640;-83
2022/05/05 02:45:34;;;;;;;26.73;21.10;;;14.30;1.00;;;;;;5042500;28;20177;-84
2022/05/05 02:48:00;;;;;;;26.30;21.33;;;14.30;1.00;;;;;;5043844;28;20176;-83
2022/05/05 02:50:26;;;;;;;26.20;21.83;;;14.10;1.00;;;;;;5040673;28;20162;-83
2022/05/05 02:52:53;;;;;;;24.73;21.27;;;14.10;1.00;;;;;;5040790;28;20627;-84
2022/05/05 02:55:22;;;;;;;26.37;21.10;;;14.20;1.00;;;;;;5040246;28;20175;-84
2022/05/05 02:57:48;;;;;;;28.20;21.10;;;14.20;1.00;;;;;;5035838;28;20604;-84
2022/05/05 03:00:33;;;;;;;28.97;21.13;;;14.20;1.00;;;;;;5035368;28;20626;-83
2022/05/05 03:03:00;;;;;;;36.27;23.47;;;14.00;1.00;;;;;;5034445;28;20164;-79
2022/05/05 03:05:26;;;;;;;27.63;20.40;;;14.00;1.00;;;;;;5037018;28;20190;-78
2022/05/05 03:07:51;;;;;;;29.70;21.37;;;13.80;1.00;;;;;;5037421;28;20326;-77
2022/05/05 03:10:17;;;;;;;26.83;22.27;;;13.90;1.00;;;;;;5038516;28;20173;-78
2022/05/05 03:12:43;;;;;;;28.23;22.10;;;13.80;1.00;;;;;;5035082;28;20836;-79
2022/05/05 03:15:27;;;;;;;28.93;22.70;;;13.70;1.00;;;;;;5050165;28;20167;-83
2022/05/05 03:17:53;;;;;;;29.20;21.27;;;13.70;1.00;;;;;;5051923;28;20179;-82
2022/05/05 03:20:19;;;;;;;26.00;21.43;;;13.70;1.00;;;;;;5042242;28;20236;-81
2022/05/05 03:22:44;;;;;;;28.97;21.70;;;13.70;1.00;;;;;;5044781;28;20199;-84
2022/05/05 03:25:10;;;;;;;29.40;22.50;;;13.60;1.00;;;;;;5045621;28;20198;-82
2022/05/05 03:27:37;;;;;;;31.40;23.33;;;13.60;1.00;;;;;;5047862;28;20214;-83
2022/05/05 03:30:03;;;;;;;30.07;22.30;;;13.40;1.00;;;;;;5044273;28;20201;-84
2022/05/05 03:32:32;;;;;;;30.23;23.57;;;13.50;1.00;;;;;;5046994;28;20180;-83
2022/05/05 03:34:58;;;;;;;29.83;22.43;;;13.50;1.00;;;;;;5043679;28;20227;-84
2022/05/05 03:37:28;;;;;;;30.60;23.03;;;13.50;1.00;;;;;;5041366;28;20164;-76
2022/05/05 03:39:53;;;;;;;32.30;23.27;;;13.60;1.00;;;;;;5039881;28;20709;-80
2022/05/05 03:42:19;;;;;;;30.17;22.73;;;13.50;1.00;;;;;;5034776;28;20166;-79
2022/05/05 03:44:44;;;;;;;31.70;23.57;;;13.50;1.00;;;;;;5034650;28;20190;-79
2022/05/05 03:47:10;;;;;;;29.60;22.97;;;13.50;1.00;;;;;;5035054;28;20202;-85
2022/05/05 03:49:37;;;;;;;32.23;23.70;;;13.60;1.00;;;;;;5034633;28;20175;-84
2022/05/05 03:52:04;;;;;;;33.13;24.17;;;13.60;1.00;;;;;;5035912;28;20707;-84
2022/05/05 03:54:32;;;;;;;30.67;22.80;;;13.60;1.00;;;;;;5049928;28;20278;-86
2022/05/05 03:56:57;;;;;;;28.77;24.20;;;13.60;1.00;;;;;;5034465;28;20163;-81
2022/05/05 03:59:25;;;;;;;27.80;23.97;;;13.50;1.00;;;;;;5034303;28;20725;-83
2022/05/05 04:01:51;;;;;;;31.67;22.83;;;13.50;1.00;;;;;;5033813;28;20217;-79
2022/05/05 04:04:17;;;;;;;28.27;23.77;;;13.50;1.00;;;;;;5033514;28;20607;-79
2022/05/05 04:06:43;;;;;;;30.20;24.80;;;13.50;1.00;;;;;;5033300;28;20743;-79
2022/05/05 04:09:10;;;;;;;33.77;24.23;;;13.60;1.00;;;;;;5033546;28;20176;-84
2022/05/05 04:11:36;;;;;;;29.20;24.40;;;13.80;1.00;;;;;;5036273;28;20232;-84
2022/05/05 04:14:03;;;;;;;32.77;24.23;;;13.50;1.00;;;;;;5034324;28;20174;-79
2022/05/05 04:16:31;;;;;;;29.53;23.60;;;13.50;1.00;;;;;;5033737;28;20684;-78
2022/05/05 04:19:01;;;;;;;29.47;24.63;;;13.40;1.00;;;;;;5034475;28;20203;-79
2022/05/05 04:21:27;;;;;;;32.03;24.03;;;13.40;1.00;;;;;;5035670;28;20774;-80
2022/05/05 04:23:52;;;;;;;31.33;24.50;;;13.40;1.00;;;;;;5037127;28;20202;-84
2022/05/05 04:26:19;;;;;;;31.83;24.63;;;13.50;1.80;;;;;;5043275;28;20211;-83
2022/05/05 04:28:48;;;;;;;34.30;24.10;;;13.60;1.00;;;;;;5056372;28;20183;-78
2022/05/05 04:31:15;;;;;;;30.43;24.43;;;13.50;1.00;;;;;;5037825;28;20210;-82
2022/05/05 04:33:41;;;;;;;31.87;24.27;;;13.50;1.00;;;;;;5037963;28;20259;-82
2022/05/05 04:36:08;;;;;;;31.40;24.90;;;13.50;1.10;;;;;;5038650;28;20174;-83
2022/05/05 04:38:34;;;;;;;31.63;23.83;;;13.50;2.40;;;;;;5037760;28;20187;-79
2022/05/05 04:41:00;;;;;;;28.90;23.60;;;13.50;3.00;;;;;;5038548;28;20585;-78
2022/05/05 04:43:41;;;;;;;31.63;24.30;;;13.50;2.30;;;;;;5057379;28;20213;-83
2022/05/05 04:46:09;;;;;;;32.63;24.60;;;13.60;2.90;;;;;;5051626;28;20238;-83
2022/05/05 04:48:35;;;;;;;28.17;23.80;;;13.60;1.00;;;;;;5050911;28;20166;-84
2022/05/05 04:51:00;;;;;;;31.03;24.37;;;13.70;1.00;;;;;;5039957;28;20200;-85
2022/05/05 04:53:27;;;;;;;30.50;24.40;;;13.70;1.00;;;;;;5038543;28;20173;-78
2022/05/05 04:55:53;;;;;;;29.03;23.93;;;13.80;1.00;;;;;;5040803;28;20548;-77
2022/05/05 04:58:19;;;;;;;31.90;23.97;;;13.80;1.00;;;;;;5043858;28;20183;-78
2022/05/05 05:00:46;;;;;;;30.53;25.47;;;13.90;1.00;;;;;;5038748;28;20234;-82
2022/05/05 05:03:32;;;;;;;27.93;21.90;;;13.90;1.00;;;;;;5038329;28;20165;-84
2022/05/05 05:06:07;;;;;;;31.80;24.37;;;13.90;1.00;;;;;;5036187;28;20221;-83
2022/05/05 05:08:33;;;;;;;33.27;25.07;;;13.80;4.70;;;;;;5037663;28;20188;-82
2022/05/05 05:10:59;;;;;;;33.30;25.13;;;14.00;3.10;;;;;;5038734;28;20184;-84
2022/05/05 05:13:25;;;;;;;31.77;24.63;;;14.00;7.90;;;;;;5039959;28;20175;-83
2022/05/05 05:15:51;;;;;;;31.47;25.53;;;13.90;11.50;;;;;;5037977;28;20193;-81
2022/05/05 05:18:17;;;;;;;32.37;25.43;;;14.10;8.20;;;;;;5036741;28;20179;-83
2022/05/05 05:20:42;;;;;;;33.97;25.23;;;14.10;7.90;;;;;;5043569;28;20171;-79
2022/05/05 05:23:09;;;;;;;33.10;26.77;;;14.20;4.70;;;;;;5047289;28;20644;-79
2022/05/05 05:25:35;;;;;;;32.40;26.37;;;14.20;4.90;;;;;;5050625;28;20614;-86
2022/05/05 05:28:01;;;;;;;37.30;27.03;;;14.40;4.50;;;;;;5040392;28;20165;-84
2022/05/05 05:30:33;;;;;;;35.33;26.53;;;14.40;2.30;;;;;;5039953;28;20703;-84
2022/05/05 05:32:58;;;;;;;33.87;27.33;;;14.40;1.00;;;;;;5039603;28;20173;-80
2022/05/05 05:35:24;;;;;;;32.77;26.00;;;14.50;1.00;;;;;;5038678;28;20652;-86
2022/05/05 05:37:51;;;;;;;29.67;24.83;;;14.40;1.00;;;;;;5037504;28;20205;-86
2022/05/05 05:40:17;;;;;;;30.33;25.40;;;14.30;1.00;;;;;;5038579;28;20168;-81
2022/05/05 05:42:43;;;;;;;31.53;25.13;;;14.20;4.30;;;;;;5037643;28;20253;-82
2022/05/05 05:45:10;;;;;;;32.93;27.30;;;14.10;6.10;;;;;;5035964;28;20184;-84
2022/05/05 05:47:35;;;;;;;32.30;24.80;;;14.20;3.20;;;;;;5036557;28;20225;-81
2022/05/05 05:50:01;;;;;;;32.00;25.27;;;14.30;2.20;;;;;;5035963;28;20199;-82
2022/05/05 05:52:27;;;;;;;32.07;25.47;;;14.50;1.00;;;;;;5036277;28;20188;-79
2022/05/05 05:54:52;;;;;;;32.27;26.23;;;14.30;2.30;;;;;;5037761;28;20182;-85
2022/05/05 05:57:18;;;;;;;35.00;25.40;;;14.40;2.00;;;;;;5038031;28;20707;-85
2022/05/05 05:59:44;;;;;;;32.10;25.33;;;14.20;3.10;;;;;;5039281;28;20192;-83
2022/05/05 06:04:54;;;;;;;32.67;26.03;;;14.30;1.00;;;;;;5040386;28;20697;-86
2022/05/05 06:07:20;;;;;;;36.23;26.73;;;14.50;1.00;;;;;;5038461;28;20205;-84
2022/05/05 06:09:46;;;;;;;30.70;25.20;;;14.40;1.00;;;;;;5038058;28;20224;-88
2022/05/05 06:12:11;;;;;;;31.43;25.83;;;14.30;1.00;;;;;;5039698;28;20167;-86
2022/05/05 06:14:37;;;;;;;35.20;24.83;;;14.10;3.30;;;;;;5038826;28;20252;-85
2022/05/05 06:17:04;;;;;;;33.10;24.70;;;14.10;8.60;;;;;;5039869;28;20191;-85
2022/05/05 06:19:29;;;;;;;33.60;25.13;;;14.10;8.50;;;;;;5034333;28;20211;-85
2022/05/05 06:21:57;;;;;;;32.57;24.87;;;14.20;9.00;;;;;;5038012;28;20173;-84
2022/05/05 06:24:23;;;;;;;34.47;25.57;;;14.40;5.00;;;;;;5037411;28;20181;-84
2022/05/05 06:26:49;;;;;;;34.20;26.30;;;14.70;1.00;;;;;;5036228;28;20241;-85
2022/05/05 06:29:14;;;;;;;36.10;25.97;;;14.50;1.00;;;;;;5035806;28;20594;-83
2022/05/05 06:31:40;;;;;;;32.87;25.90;;;14.50;1.00;;;;;;5037338;28;20254;-84
2022/05/05 06:34:05;;;;;;;33.47;27.27;;;14.40;1.00;;;;;;5038665;28;20557;-84
2022/05/05 06:36:31;;;;;;;30.73;25.50;;;14.40;1.00;;;;;;5036279;28;20265;-84
2022/05/05 06:38:57;;;;;;;33.80;26.40;;;14.40;1.00;;;;;;5036342;28;20237;-86
2022/05/05 06:41:23;;;;;;;32.53;26.23;;;14.50;1.00;;;;;;5039061;28;20655;-82
2022/05/05 06:43:48;;;;;;;33.50;27.10;;;14.50;1.00;;;;;;5053736;28;20248;-84
2022/05/05 06:46:14;;;;;;;35.07;27.87;;;14.40;1.00;;;;;;5055224;28;20231;-78
2022/05/05 06:48:41;;;;;;;33.80;26.77;;;14.10;1.00;;;;;;5053761;28;20219;-79
2022/05/05 06:51:06;;;;;;;36.03;28.03;;;14.10;1.00;;;;;;5054094;28;20201;-84
2022/05/05 06:53:34;;;;;;;32.83;27.17;;;14.30;1.00;;;;;;5051140;28;20199;-80
2022/05/05 06:56:02;;;;;;;39.13;27.80;;;14.40;1.00;;;;;;5057033;28;20152;-82
2022/05/05 06:58:30;;;;;;;38.63;28.13;;;14.30;1.00;;;;;;5057136;28;20183;-82
2022/05/05 07:03:43;;;;;;;32.60;27.90;;;14.20;2.30;;;;;;5055950;28;20167;-83
2022/05/05 07:06:11;;;;;;;36.03;28.83;;;14.30;1.00;;;;;;5057214;28;20196;-86
2022/05/05 07:11:44;;;;;;;40.27;29.43;;;14.30;2.80;;;;;;5054905;28;20169;-86
2022/05/05 07:14:13;;;;;;;37.17;28.50;;;14.10;10.70;;;;;;5053367;28;20643;-86
2022/05/05 07:17:03;;;;;;;42.33;31.17;;;14.20;13.90;;;;;;5042388;28;20190;-84
2022/05/05 07:19:29;;;;;;;37.77;29.33;;;14.10;13.70;;;;;;5043870;28;20210;-83
2022/05/05 07:21:58;;;;;;;37.97;29.43;;;14.10;14.80;;;;;;5038769;28;20207;-82
2022/05/05 07:24:25;;;;;;;40.07;29.20;;;14.00;18.70;;;;;;5039657;28;20174;-83
2022/05/05 07:26:50;;;;;;;38.03;29.10;;;14.10;20.80;;;;;;5046905;28;20207;-81
2022/05/05 07:29:16;;;;;;;40.50;29.03;;;14.10;22.00;;;;;;5042558;28;20171;-79
2022/05/05 07:31:42;;;;;;;40.17;30.27;;;14.30;15.80;;;;;;5038811;28;20197;-86
2022/05/05 07:34:08;;;;;;;39.63;30.50;;;14.30;16.50;;;;;;5037880;28;20181;-84
2022/05/05 07:36:34;;;;;;;38.83;29.97;;;14.30;18.90;;;;;;5040259;28;20184;-84
2022/05/05 07:39:01;;;;;;;40.33;29.70;;;14.50;18.30;;;;;;5038511;28;20212;-83
2022/05/05 07:41:27;;;;;;;43.93;30.70;;;14.60;13.50;;;;;;5039022;28;20186;-84
2022/05/05 07:43:52;;;;;;;40.73;31.00;;;14.70;9.20;;;;;;5036884;28;20176;-85
2022/05/05 07:46:18;;;;;;;39.10;30.30;;;14.70;9.70;;;;;;5037856;28;20203;-85
2022/05/05 07:48:45;;;;;;;40.93;29.73;;;14.80;7.30;;;;;;5040943;28;20623;-84
2022/05/05 07:51:11;;;;;;;37.90;29.43;;;14.80;6.00;;;;;;5022802;28;20180;-85
2022/05/05 07:53:36;;;;;;;39.27;29.43;;;14.90;4.70;;;;;;5039547;28;20166;-86
2022/05/05 07:56:02;;;;;;;35.67;27.83;;;15.10;3.00;;;;;;5037191;28;20507;-81
2022/05/05 07:58:30;;;;;;;34.30;27.77;;;15.00;5.00;;;;;;5036497;28;20177;-85
2022/05/05 08:00:56;;;;;;;34.03;26.60;;;15.10;1.00;;;;;;5041480;28;20177;-85
2022/05/05 08:03:22;;;;;;;33.17;25.87;;;15.20;1.00;;;;;;5046272;28;20177;-82
2022/05/05 08:05:48;;;;;;;35.03;26.67;;;15.20;1.00;;;;;;5040120;28;20188;-82
2022/05/05 08:08:14;;;;;;;36.17;27.90;;;15.30;1.00;;;;;;5047585;28;20201;-82
2022/05/05 08:10:40;;;;;;;34.73;26.87;;;15.20;1.00;;;;;;5041097;28;20165;-82
2022/05/05 08:13:06;;;;;;;34.03;26.20;;;15.00;1.00;;;;;;5053838;28;20173;-81
2022/05/05 08:15:31;;;;;;;31.80;25.03;;;15.40;1.00;;;;;;5052002;28;20217;-85
2022/05/05 08:17:57;;;;;;;31.63;25.27;;;15.60;1.00;;;;;;5044131;28;20571;-84
2022/05/05 08:20:29;;;;;;;31.03;25.03;;;15.80;1.00;;;;;;5043503;28;20175;-80
2022/05/05 08:23:07;;;;;;;31.90;24.50;;;16.00;1.00;;;;;;5042038;28;20224;-78
2022/05/05 08:28:29;;;;;;;29.17;23.37;;;16.10;1.00;;;;;;5035870;28;20700;-84
2022/05/05 08:31:00;;;;;;;30.13;22.97;;;16.20;1.00;;;;;;5035405;28;20173;-83
2022/05/05 08:33:29;;;;;;;28.80;23.27;;;16.00;1.00;;;;;;5037084;28;20177;-84
2022/05/05 08:35:58;;;;;;;29.13;24.53;;;16.00;1.00;;;;;;5036614;28;20257;-83
2022/05/05 08:38:24;;;;;;;31.33;24.07;;;16.10;1.00;;;;;;5035533;28;20186;-80
2022/05/05 08:40:51;;;;;;;29.97;23.47;;;16.20;1.00;;;;;;5036538;28;20182;-82
2022/05/05 08:43:17;;;;;;;30.23;22.47;;;16.50;1.00;;;;;;5037158;28;20707;-85
2022/05/05 08:45:47;;;;;;;28.77;23.03;;;16.70;1.00;;;;;;5035419;28;20182;-82
2022/05/05 08:48:12;;;;;;;29.33;22.77;;;16.80;1.00;;;;;;5035596;28;20681;-84
2022/05/05 08:50:41;;;;;;;31.07;25.53;;;16.90;1.00;;;;;;5036035;28;20177;-83
2022/05/05 08:53:07;;;;;;;33.13;25.83;;;16.80;1.00;;;;;;5050916;28;20182;-81
2022/05/05 08:55:34;;;;;;;31.67;24.93;;;16.70;1.00;;;;;;5034553;28;20177;-84
2022/05/05 08:58:01;;;;;;;33.03;25.67;;;16.80;1.00;;;;;;5036773;28;20173;-85
2022/05/05 09:00:27;;;;;;;29.07;24.90;;;17.20;1.00;;;;;;5035375;28;20569;-85
2022/05/05 09:03:00;;;;;;;35.77;25.73;;;17.20;1.00;;;;;;5041293;28;20171;-84
2022/05/05 09:05:44;;;;;;;31.77;25.63;;;17.30;1.00;;;;;;5041165;28;20195;-82
2022/05/05 09:08:25;;;;;;;29.53;24.30;;;17.20;1.00;;;;;;5044135;28;20232;-82
2022/05/05 09:10:56;;;;;;;28.97;23.33;;;17.30;1.00;;;;;;5045653;28;20166;-81
2022/05/05 09:13:31;;;;;;;29.07;23.60;;;17.40;1.00;;;;;;5045886;28;20638;-83
2022/05/05 09:16:06;;;;;;;28.27;24.00;;;17.40;1.00;;;;;;5048475;28;20200;-83
2022/05/05 09:18:35;;;;;;;35.37;25.30;;;17.00;1.00;;;;;;5052503;28;20617;-85
2022/05/05 09:21:06;;;;;;;29.53;22.77;;;17.00;1.00;;;;;;5046608;28;20249;-83
2022/05/05 09:26:37;;;;;;;29.50;23.00;;;17.00;1.00;;;;;;5029145;28;20221;-87
2022/05/05 09:29:23;;;;;;;29.00;23.60;;;16.90;1.00;;;;;;5059322;28;20176;-83
2022/05/05 09:31:50;;;;;;;28.63;21.40;;;17.00;1.00;;;;;;5053547;28;20642;-83
2022/05/05 09:34:22;;;;;;;32.87;23.03;;;17.10;1.00;;;;;;5045341;28;20162;-84
2022/05/05 09:36:48;;;;;;;26.10;21.40;;;17.30;1.00;;;;;;5042956;28;20161;-84
2022/05/05 09:39:13;;;;;;;25.57;20.87;;;17.50;1.00;;;;;;5042888;28;20635;-80
2022/05/05 09:41:46;;;;;;;21.23;17.73;;;17.50;1.00;;;;;;5041324;28;20158;-79
2022/05/05 09:44:14;;;;;;;24.30;20.53;;;17.60;1.00;;;;;;5039427;28;20260;-84
2022/05/05 09:46:40;;;;;;;22.90;19.73;;;17.60;1.00;;;;;;5045290;28;20229;-85
2022/05/05 09:49:15;;;;;;;24.13;19.17;;;17.70;1.00;;;;;;5048018;28;20189;-80
2022/05/05 09:57:40;;;;;;;22.33;17.90;;;18.10;1.00;;;;;;5039925;28;20221;-84
2022/05/05 10:00:42;;;;;;;20.73;17.93;;;18.30;1.00;;;;;;5046246;28;20154;-82
2022/05/05 10:05:57;;;;;;;23.43;17.90;;;18.60;1.00;;;;;;5048361;28;20240;-83
2022/05/05 10:08:42;;;;;;;20.90;17.17;;;18.50;99.90;;;;;;5048402;28;20173;-84
2022/05/05 10:11:09;;;;;;;20.73;18.40;;;18.50;99.90;;;;;;5043385;28;20221;-83
2022/05/05 10:13:39;;;;;;;17.47;15.07;;;18.60;99.90;;;;;;5041554;28;20181;-85
2022/05/05 10:16:08;;;;;;;19.77;16.10;;;18.40;99.90;;;;;;5042552;28;20202;-84
2022/05/05 10:18:41;;;;;;;16.87;14.67;;;18.20;99.90;;;;;;5041461;28;20197;-86
2022/05/05 10:21:08;;;;;;;15.33;13.03;;;18.30;99.90;;;;;;5057467;28;20181;-81
2022/05/05 10:23:47;;;;;;;17.70;13.97;;;18.40;99.90;;;;;;5058304;28;20145;-81
2022/05/05 10:26:13;;;;;;;22.13;17.77;;;18.20;99.90;;;;;;5058058;28;20242;-81
2022/05/05 10:28:47;;;;;;;23.30;18.87;;;18.20;99.90;;;;;;5054452;28;20188;-81
2022/05/05 10:31:42;;;;;;;23.40;18.13;;;18.20;1.00;;;;;;5051685;28;20148;-83
2022/05/05 10:34:20;;;;;;;23.00;17.47;;;18.50;1.00;;;;;;5045555;28;20158;-81
2022/05/05 10:37:13;;;;;;;21.30;17.90;;;18.80;99.90;;;;;;5044849;28;20165;-84
2022/05/05 10:39:50;;;;;;;12.70;11.30;;;19.20;99.90;;;;;;5040736;28;20183;-85
2022/05/05 10:42:33;;;;;;;13.97;11.20;;;19.20;1.00;;;;;;5042708;28;20155;-85
2022/05/05 10:45:09;;;;;;;15.37;13.13;;;19.10;1.00;;;;;;5043985;28;20604;-84
2022/05/05 10:47:51;;;;;;;18.37;13.53;;;18.90;30.70;;;;;;5042084;28;20212;-79
2022/05/05 10:50:29;;;;;;;19.30;13.53;;;19.00;99.90;;;;;;5040540;28;20180;-86
2022/05/05 10:52:56;;;;;;;16.17;13.40;;;19.10;15.50;;;;;;5053226;28;20174;-83
2022/05/05 10:55:46;;;;;;;14.67;12.90;;;19.30;1.50;;;;;;5053128;28;20171;-83
2022/05/05 10:58:32;;;;;;;14.97;12.83;;;19.40;1.00;;;;;;5035561;28;20185;-79
2022/05/05 11:00:59;;;;;;;18.90;13.87;;;19.80;99.90;;;;;;5040188;28;20215;-84
2022/05/05 11:03:27;;;;;;;16.23;12.40;;;19.70;99.90;;;;;;5038372;28;20168;-82
2022/05/05 11:06:16;;;;;;;18.33;14.23;;;19.70;99.90;;;;;;5036718;28;20283;-84
2022/05/05 11:09:02;;;;;;;15.67;12.93;;;19.90;1.00;;;;;;5040067;28;20645;-80
2022/05/05 11:11:42;;;;;;;15.37;12.47;;;20.20;1.00;;;;;;5040369;28;20172;-83
2022/05/05 11:23:04;;;;;;;14.43;12.37;;;20.70;99.90;;;;;;5043293;28;20177;-85
2022/05/05 11:25:31;;;;;;;14.57;12.10;;;20.80;1.00;;;;;;5038329;28;20180;-86
2022/05/05 11:27:58;;;;;;;13.57;12.07;;;20.30;1.00;;;;;;5040127;28;20215;-85
2022/05/05 11:30:24;;;;;;;12.90;11.47;;;19.80;1.00;;;;;;5040513;28;20193;-84
2022/05/05 11:32:50;;;;;;;18.13;16.13;;;19.40;1.00;;;;;;5041530;28;20176;-85
2022/05/05 11:35:22;;;;;;;18.90;16.43;;;19.20;1.00;;;;;;5039691;28;20172;-83
2022/05/05 11:37:47;;;;;;;17.13;15.30;;;19.10;1.00;;;;;;5038349;28;20176;-83
2022/05/05 11:40:14;;;;;;;16.27;14.67;;;19.10;35.90;;;;;;5038371;28;20175;-85
2022/05/05 11:45:55;;;;;;;18.37;14.43;;;19.00;28.70;;;;;;5035241;28;20167;-86
2022/05/05 11:48:20;;;;;;;16.70;14.87;;;18.60;99.90;;;;;;5037521;28;20204;-86
2022/05/05 11:50:47;;;;;;;19.53;15.07;;;18.40;99.90;;;;;;5040421;28;20179;-84
2022/05/05 11:53:17;;;;;;;16.67;14.93;;;18.20;1.00;;;;;;5050795;28;20288;-85
2022/05/05 11:55:46;;;;;;;18.23;15.03;;;18.00;1.00;;;;;;5046079;28;20180;-86
2022/05/05 11:58:16;;;;;;;18.37;16.00;;;17.90;1.00;;;;;;5042771;28;20223;-86
2022/05/05 12:03:27;;;;;;;19.73;17.63;;;17.80;1.00;;;;;;5055631;28;20172;-81
2022/05/05 12:05:53;;;;;;;19.70;17.60;;;17.80;1.00;;;;;;5039532;28;20182;-84
2022/05/05 12:08:20;;;;;;;19.83;17.73;;;17.50;1.00;;;;;;5045811;28;20174;-82
2022/05/05 12:10:48;;;;;;;23.27;20.83;;;17.50;1.00;;;;;;5054868;28;20200;-82
2022/05/05 12:13:14;;;;;;;20.47;18.37;;;17.40;1.00;;;;;;5047725;28;20177;-85
2022/05/05 12:15:51;;;;;;;19.90;17.80;;;17.30;1.00;;;;;;5041804;28;20727;-85
2022/05/05 12:18:17;;;;;;;20.47;18.00;;;17.30;1.00;;;;;;5041723;28;20174;-82
2022/05/05 12:20:44;;;;;;;22.43;18.67;;;17.30;1.00;;;;;;5044593;28;20220;-85
2022/05/05 12:23:11;;;;;;;22.30;19.23;;;17.10;1.00;;;;;;5039623;28;20166;-83
2022/05/05 12:25:43;;;;;;;24.10;21.63;;;17.20;1.00;;;;;;5037360;28;20170;-85
2022/05/05 12:28:09;;;;;;;22.83;20.53;;;17.30;1.00;;;;;;5036256;28;20258;-84
2022/05/05 12:30:39;;;;;;;24.70;22.27;;;17.20;1.00;;;;;;5037254;28;20260;-86
2022/05/05 12:33:08;;;;;;;24.33;21.80;;;17.20;1.00;;;;;;5037339;28;20173;-85
2022/05/05 12:35:44;;;;;;;23.33;20.77;;;17.10;1.00;;;;;;5035333;28;20636;-84
2022/05/05 12:38:13;;;;;;;24.53;21.93;;;17.10;1.00;;;;;;5047132;28;20161;-85
2022/05/05 12:40:43;;;;;;;22.37;19.93;;;17.00;1.00;;;;;;5065104;28;20201;-85
2022/05/05 12:43:14;;;;;;;21.60;19.40;;;17.10;1.00;;;;;;5036905;28;20157;-85
2022/05/05 12:45:41;;;;;;;23.10;20.70;;;17.30;1.00;;;;;;5036444;28;20208;-83
2022/05/05 12:48:08;;;;;;;23.20;19.37;;;17.50;1.00;;;;;;5040015;28;20671;-85
2022/05/05 12:50:46;;;;;;;22.10;19.37;;;17.70;1.00;;;;;;5040170;28;20246;-84
2022/05/05 13:01:44;;;;;;;19.00;16.93;;;17.80;1.00;;;;;;5040627;28;20187;-84
2022/05/05 13:04:15;;;;;;;18.27;16.37;;;18.00;1.00;;;;;;5042154;28;20166;-85
2022/05/05 13:06:42;;;;;;;21.80;16.23;;;18.30;1.00;;;;;;5042480;28;20215;-83
2022/05/05 13:09:09;;;;;;;18.83;16.07;;;18.60;1.00;;;;;;5041603;28;20170;-84
2022/05/05 13:11:41;;;;;;;17.03;15.17;;;18.60;1.00;;;;;;5045795;28;20229;-82
2022/05/05 13:14:09;;;;;;;15.40;13.80;;;18.80;99.90;;;;;;5046683;28;20173;-83
2022/05/05 13:16:35;;;;;;;13.30;12.00;;;18.80;99.90;;;;;;5051573;28;20206;-83
2022/05/05 13:19:02;;;;;;;11.33;10.10;;;19.00;99.90;;;;;;5052247;28;20230;-83
2022/05/05 13:21:28;;;;;;;8.57;7.67;;;19.00;95.70;;;;;;5055863;28;20306;-82
2022/05/05 13:23:56;;;;;;;9.57;7.80;;;18.80;99.90;;;;;;5054897;28;20161;-80
2022/05/05 13:26:24;;;;;;;9.80;8.60;;;18.80;99.90;;;;;;5054471;28;20203;-83
2022/05/05 13:28:51;;;;;;;11.07;9.97;;;18.90;99.90;;;;;;5051069;28;20186;-84
2022/05/05 13:31:18;;;;;;;15.47;12.97;;;18.80;1.00;;;;;;5040837;28;20174;-83
2022/05/05 13:33:44;;;;;;;13.97;11.73;;;18.70;99.90;;;;;;5040929;28;20162;-86
2022/05/05 13:36:12;;;;;;;15.33;12.73;;;18.70;99.90;;;;;;5041124;28;20184;-87
2022/05/05 13:38:38;;;;;;;12.73;11.43;;;18.90;1.00;;;;;;5039761;28;20178;-84